sensor_id;sensor_type;location;lat;lon;timestamp;P1;durP1;ratioP1;P2;durP2;ratioP2
60312;SDS011;46158;52.850;6.970;2022-11-20T00:00:29;16.55;;;6.47;;
60312;SDS011;46158;52.850;6.970;2022-11-20T00:02:54;17.35;;;6.78;;
60312;SDS011;46158;52.850;6.970;2022-11-20T00:05:20;19.30;;;6.85;;
60312;SDS011;46158;52.850;6.970;2022-11-20T00:07:46;18.33;;;6.57;;
60312;SDS011;46158;52.850;6.970;2022-11-20T00:10:11;17.98;;;6.60;;
60312;SDS011;46158;52.850;6.970;2022-11-20T00:12:37;16.20;;;6.30;;
60312;SDS011;46158;52.850;6.970;2022-11-20T00:15:03;16.88;;;6.35;;
60312;SDS011;46158;52.850;6.970;2022-11-20T00:17:29;17.02;;;6.60;;
60312;SDS011;46158;52.850;6.970;2022-11-20T00:19:55;17.48;;;6.57;;
60312;SDS011;46158;52.850;6.970;2022-11-20T00:22:21;17.73;;;6.60;;
60312;SDS011;46158;52.850;6.970;2022-11-20T00:24:46;16.83;;;6.25;;
60312;SDS011;46158;52.850;6.970;2022-11-20T00:27:12;18.35;;;7.18;;
60312;SDS011;46158;52.850;6.970;2022-11-20T00:29:38;16.50;;;6.40;;
60312;SDS011;46158;52.850;6.970;2022-11-20T00:32:03;17.42;;;6.43;;
60312;SDS011;46158;52.850;6.970;2022-11-20T00:34:29;17.08;;;6.40;;
60312;SDS011;46158;52.850;6.970;2022-11-20T00:36:55;17.00;;;6.53;;
60312;SDS011;46158;52.850;6.970;2022-11-20T00:39:20;17.83;;;6.35;;
60312;SDS011;46158;52.850;6.970;2022-11-20T00:41:46;16.67;;;6.53;;
60312;SDS011;46158;52.850;6.970;2022-11-20T00:44:12;17.23;;;6.75;;
60312;SDS011;46158;52.850;6.970;2022-11-20T00:46:37;17.38;;;6.75;;
60312;SDS011;46158;52.850;6.970;2022-11-20T00:49:03;17.02;;;6.18;;
60312;SDS011;46158;52.850;6.970;2022-11-20T00:51:28;17.23;;;7.03;;
60312;SDS011;46158;52.850;6.970;2022-11-20T00:53:55;17.65;;;6.47;;
60312;SDS011;46158;52.850;6.970;2022-11-20T00:56:21;17.40;;;6.65;;
60312;SDS011;46158;52.850;6.970;2022-11-20T00:58:48;17.52;;;6.55;;
60312;SDS011;46158;52.850;6.970;2022-11-20T01:01:34;17.67;;;6.18;;
60312;SDS011;46158;52.850;6.970;2022-11-20T01:04:01;15.98;;;6.43;;
60312;SDS011;46158;52.850;6.970;2022-11-20T01:06:28;23.65;;;7.00;;
60312;SDS011;46158;52.850;6.970;2022-11-20T01:08:57;17.58;;;6.57;;
60312;SDS011;46158;52.850;6.970;2022-11-20T01:11:28;16.65;;;6.18;;
60312;SDS011;46158;52.850;6.970;2022-11-20T01:13:57;17.40;;;6.47;;
60312;SDS011;46158;52.850;6.970;2022-11-20T01:16:24;17.17;;;6.35;;
60312;SDS011;46158;52.850;6.970;2022-11-20T01:18:52;17.38;;;6.30;;
60312;SDS011;46158;52.850;6.970;2022-11-20T01:23:48;16.95;;;6.75;;
60312;SDS011;46158;52.850;6.970;2022-11-20T01:26:16;17.02;;;6.18;;
60312;SDS011;46158;52.850;6.970;2022-11-20T01:28:46;16.08;;;6.10;;
60312;SDS011;46158;52.850;6.970;2022-11-20T01:31:20;18.17;;;6.63;;
60312;SDS011;46158;52.850;6.970;2022-11-20T01:33:51;16.77;;;6.75;;
60312;SDS011;46158;52.850;6.970;2022-11-20T01:36:20;17.65;;;6.60;;
60312;SDS011;46158;52.850;6.970;2022-11-20T01:38:50;16.20;;;6.30;;
60312;SDS011;46158;52.850;6.970;2022-11-20T01:41:17;16.98;;;6.40;;
60312;SDS011;46158;52.850;6.970;2022-11-20T01:44:02;18.50;;;6.15;;
60312;SDS011;46158;52.850;6.970;2022-11-20T01:46:29;18.00;;;6.65;;
60312;SDS011;46158;52.850;6.970;2022-11-20T01:51:36;15.98;;;6.00;;
60312;SDS011;46158;52.850;6.970;2022-11-20T01:56:44;17.92;;;6.53;;
60312;SDS011;46158;52.850;6.970;2022-11-20T01:59:13;18.17;;;6.43;;
60312;SDS011;46158;52.850;6.970;2022-11-20T02:01:42;16.98;;;6.07;;
60312;SDS011;46158;52.850;6.970;2022-11-20T02:04:08;16.92;;;6.60;;
60312;SDS011;46158;52.850;6.970;2022-11-20T02:06:39;17.10;;;6.40;;
60312;SDS011;46158;52.850;6.970;2022-11-20T02:09:09;16.25;;;6.57;;
60312;SDS011;46158;52.850;6.970;2022-11-20T02:11:35;16.95;;;6.25;;
60312;SDS011;46158;52.850;6.970;2022-11-20T02:14:00;16.77;;;6.60;;
60312;SDS011;46158;52.850;6.970;2022-11-20T02:16:30;17.33;;;6.35;;
60312;SDS011;46158;52.850;6.970;2022-11-20T02:18:59;19.05;;;6.85;;
60312;SDS011;46158;52.850;6.970;2022-11-20T02:24:01;18.58;;;6.35;;
60312;SDS011;46158;52.850;6.970;2022-11-20T02:26:30;16.42;;;5.97;;
60312;SDS011;46158;52.850;6.970;2022-11-20T02:29:00;16.13;;;6.00;;
60312;SDS011;46158;52.850;6.970;2022-11-20T02:31:29;16.33;;;5.95;;
60312;SDS011;46158;52.850;6.970;2022-11-20T02:34:06;16.75;;;6.18;;
60312;SDS011;46158;52.850;6.970;2022-11-20T02:36:32;16.45;;;5.90;;
60312;SDS011;46158;52.850;6.970;2022-11-20T02:39:03;17.50;;;6.20;;
60312;SDS011;46158;52.850;6.970;2022-11-20T02:41:32;16.48;;;6.28;;
60312;SDS011;46158;52.850;6.970;2022-11-20T02:43:59;16.17;;;5.72;;
60312;SDS011;46158;52.850;6.970;2022-11-20T02:46:25;16.90;;;6.20;;
60312;SDS011;46158;52.850;6.970;2022-11-20T02:48:51;16.63;;;6.25;;
60312;SDS011;46158;52.850;6.970;2022-11-20T02:51:17;15.90;;;6.10;;
60312;SDS011;46158;52.850;6.970;2022-11-20T02:53:42;17.13;;;6.15;;
60312;SDS011;46158;52.850;6.970;2022-11-20T02:56:08;16.65;;;6.10;;
60312;SDS011;46158;52.850;6.970;2022-11-20T02:58:33;15.18;;;6.03;;
60312;SDS011;46158;52.850;6.970;2022-11-20T03:00:59;16.95;;;6.15;;
60312;SDS011;46158;52.850;6.970;2022-11-20T03:03:25;16.52;;;6.43;;
60312;SDS011;46158;52.850;6.970;2022-11-20T03:05:50;15.27;;;5.93;;
60312;SDS011;46158;52.850;6.970;2022-11-20T03:08:16;16.90;;;6.53;;
60312;SDS011;46158;52.850;6.970;2022-11-20T03:10:42;16.35;;;5.93;;
60312;SDS011;46158;52.850;6.970;2022-11-20T03:13:07;16.98;;;6.10;;
60312;SDS011;46158;52.850;6.970;2022-11-20T03:15:33;15.90;;;6.07;;
60312;SDS011;46158;52.850;6.970;2022-11-20T03:18:02;16.15;;;6.30;;
60312;SDS011;46158;52.850;6.970;2022-11-20T03:20:28;16.50;;;6.65;;
60312;SDS011;46158;52.850;6.970;2022-11-20T03:22:54;16.45;;;6.28;;
60312;SDS011;46158;52.850;6.970;2022-11-20T03:25:20;22.75;;;6.93;;
60312;SDS011;46158;52.850;6.970;2022-11-20T03:27:46;16.05;;;6.03;;
60312;SDS011;46158;52.850;6.970;2022-11-20T03:30:12;16.42;;;5.72;;
60312;SDS011;46158;52.850;6.970;2022-11-20T03:32:38;15.60;;;6.18;;
60312;SDS011;46158;52.850;6.970;2022-11-20T03:35:04;14.02;;;5.70;;
60312;SDS011;46158;52.850;6.970;2022-11-20T03:37:30;16.38;;;6.03;;
60312;SDS011;46158;52.850;6.970;2022-11-20T03:39:56;16.15;;;6.03;;
60312;SDS011;46158;52.850;6.970;2022-11-20T03:42:22;16.55;;;6.50;;
60312;SDS011;46158;52.850;6.970;2022-11-20T03:45:06;15.48;;;5.80;;
60312;SDS011;46158;52.850;6.970;2022-11-20T03:47:32;15.55;;;5.85;;
60312;SDS011;46158;52.850;6.970;2022-11-20T03:49:58;17.00;;;6.38;;
60312;SDS011;46158;52.850;6.970;2022-11-20T03:52:23;16.00;;;5.93;;
60312;SDS011;46158;52.850;6.970;2022-11-20T03:54:49;16.60;;;6.13;;
60312;SDS011;46158;52.850;6.970;2022-11-20T03:57:15;16.90;;;6.45;;
60312;SDS011;46158;52.850;6.970;2022-11-20T03:59:40;15.88;;;5.57;;
60312;SDS011;46158;52.850;6.970;2022-11-20T04:02:06;16.27;;;5.93;;
60312;SDS011;46158;52.850;6.970;2022-11-20T04:04:31;16.02;;;5.60;;
60312;SDS011;46158;52.850;6.970;2022-11-20T04:06:57;15.35;;;5.53;;
60312;SDS011;46158;52.850;6.970;2022-11-20T04:09:22;14.55;;;5.53;;
60312;SDS011;46158;52.850;6.970;2022-11-20T04:11:48;16.52;;;5.80;;
60312;SDS011;46158;52.850;6.970;2022-11-20T04:14:14;16.80;;;5.90;;
60312;SDS011;46158;52.850;6.970;2022-11-20T04:16:41;15.25;;;5.50;;
60312;SDS011;46158;52.850;6.970;2022-11-20T04:19:11;16.48;;;5.90;;
60312;SDS011;46158;52.850;6.970;2022-11-20T04:21:39;16.83;;;6.07;;
60312;SDS011;46158;52.850;6.970;2022-11-20T04:24:05;17.15;;;6.00;;
60312;SDS011;46158;52.850;6.970;2022-11-20T04:26:31;16.50;;;5.90;;
60312;SDS011;46158;52.850;6.970;2022-11-20T04:28:57;15.52;;;6.07;;
60312;SDS011;46158;52.850;6.970;2022-11-20T04:31:31;17.05;;;5.68;;
60312;SDS011;46158;52.850;6.970;2022-11-20T04:33:59;14.57;;;5.60;;
60312;SDS011;46158;52.850;6.970;2022-11-20T04:36:29;15.50;;;5.45;;
60312;SDS011;46158;52.850;6.970;2022-11-20T04:38:59;14.60;;;5.32;;
60312;SDS011;46158;52.850;6.970;2022-11-20T04:41:30;15.13;;;5.50;;
60312;SDS011;46158;52.850;6.970;2022-11-20T04:43:59;16.38;;;5.40;;
60312;SDS011;46158;52.850;6.970;2022-11-20T04:46:28;15.35;;;5.28;;
60312;SDS011;46158;52.850;6.970;2022-11-20T04:49:04;16.50;;;5.75;;
60312;SDS011;46158;52.850;6.970;2022-11-20T04:51:31;15.13;;;5.60;;
60312;SDS011;46158;52.850;6.970;2022-11-20T04:53:57;16.15;;;5.38;;
60312;SDS011;46158;52.850;6.970;2022-11-20T04:56:22;16.33;;;5.85;;
60312;SDS011;46158;52.850;6.970;2022-11-20T04:58:48;16.38;;;5.68;;
60312;SDS011;46158;52.850;6.970;2022-11-20T05:01:15;15.98;;;5.75;;
60312;SDS011;46158;52.850;6.970;2022-11-20T05:03:45;14.13;;;5.40;;
60312;SDS011;46158;52.850;6.970;2022-11-20T05:06:14;14.27;;;5.57;;
60312;SDS011;46158;52.850;6.970;2022-11-20T05:08:42;16.20;;;5.43;;
60312;SDS011;46158;52.850;6.970;2022-11-20T05:11:12;15.40;;;5.35;;
60312;SDS011;46158;52.850;6.970;2022-11-20T05:13:39;15.32;;;5.20;;
60312;SDS011;46158;52.850;6.970;2022-11-20T05:16:09;15.05;;;5.40;;
60312;SDS011;46158;52.850;6.970;2022-11-20T05:18:37;15.02;;;5.38;;
60312;SDS011;46158;52.850;6.970;2022-11-20T05:21:03;15.27;;;5.63;;
60312;SDS011;46158;52.850;6.970;2022-11-20T05:23:30;16.10;;;5.68;;
60312;SDS011;46158;52.850;6.970;2022-11-20T05:25:57;15.27;;;5.50;;
60312;SDS011;46158;52.850;6.970;2022-11-20T05:28:23;15.07;;;5.53;;
60312;SDS011;46158;52.850;6.970;2022-11-20T05:30:49;14.55;;;5.25;;
60312;SDS011;46158;52.850;6.970;2022-11-20T05:33:15;14.98;;;5.38;;
60312;SDS011;46158;52.850;6.970;2022-11-20T05:35:41;14.05;;;4.95;;
60312;SDS011;46158;52.850;6.970;2022-11-20T05:38:07;13.50;;;4.70;;
60312;SDS011;46158;52.850;6.970;2022-11-20T05:40:33;13.35;;;4.90;;
60312;SDS011;46158;52.850;6.970;2022-11-20T05:42:59;14.43;;;4.95;;
60312;SDS011;46158;52.850;6.970;2022-11-20T05:45:25;14.52;;;5.18;;
60312;SDS011;46158;52.850;6.970;2022-11-20T05:47:50;13.55;;;4.82;;
60312;SDS011;46158;52.850;6.970;2022-11-20T05:50:16;13.48;;;4.70;;
60312;SDS011;46158;52.850;6.970;2022-11-20T05:52:42;12.43;;;4.60;;
60312;SDS011;46158;52.850;6.970;2022-11-20T05:55:07;11.70;;;4.60;;
60312;SDS011;46158;52.850;6.970;2022-11-20T05:57:33;11.55;;;4.32;;
60312;SDS011;46158;52.850;6.970;2022-11-20T05:59:59;13.73;;;4.75;;
60312;SDS011;46158;52.850;6.970;2022-11-20T06:02:24;14.45;;;5.00;;
60312;SDS011;46158;52.850;6.970;2022-11-20T06:04:50;12.32;;;4.60;;
60312;SDS011;46158;52.850;6.970;2022-11-20T06:07:16;13.15;;;4.40;;
60312;SDS011;46158;52.850;6.970;2022-11-20T06:09:42;12.65;;;4.45;;
60312;SDS011;46158;52.850;6.970;2022-11-20T06:12:07;14.30;;;4.50;;
60312;SDS011;46158;52.850;6.970;2022-11-20T06:14:33;12.40;;;4.53;;
60312;SDS011;46158;52.850;6.970;2022-11-20T06:16:59;14.32;;;4.47;;
60312;SDS011;46158;52.850;6.970;2022-11-20T06:19:25;11.45;;;4.28;;
60312;SDS011;46158;52.850;6.970;2022-11-20T06:21:50;12.65;;;4.40;;
60312;SDS011;46158;52.850;6.970;2022-11-20T06:24:16;14.05;;;4.82;;
60312;SDS011;46158;52.850;6.970;2022-11-20T06:26:42;11.98;;;4.20;;
60312;SDS011;46158;52.850;6.970;2022-11-20T06:29:07;11.35;;;4.45;;
60312;SDS011;46158;52.850;6.970;2022-11-20T06:31:33;13.85;;;5.50;;
60312;SDS011;46158;52.850;6.970;2022-11-20T06:34:02;14.27;;;5.45;;
60312;SDS011;46158;52.850;6.970;2022-11-20T06:36:29;13.07;;;5.20;;
60312;SDS011;46158;52.850;6.970;2022-11-20T06:38:55;13.40;;;5.13;;
60312;SDS011;46158;52.850;6.970;2022-11-20T06:41:21;14.05;;;5.40;;
60312;SDS011;46158;52.850;6.970;2022-11-20T06:43:47;12.48;;;4.80;;
60312;SDS011;46158;52.850;6.970;2022-11-20T06:46:14;14.68;;;5.35;;
60312;SDS011;46158;52.850;6.970;2022-11-20T06:48:42;12.70;;;4.90;;
60312;SDS011;46158;52.850;6.970;2022-11-20T06:51:08;12.93;;;5.00;;
60312;SDS011;46158;52.850;6.970;2022-11-20T06:53:34;12.68;;;4.78;;
60312;SDS011;46158;52.850;6.970;2022-11-20T06:56:00;11.55;;;4.60;;
60312;SDS011;46158;52.850;6.970;2022-11-20T06:58:27;12.27;;;4.55;;
60312;SDS011;46158;52.850;6.970;2022-11-20T07:01:15;13.20;;;4.68;;
60312;SDS011;46158;52.850;6.970;2022-11-20T07:03:40;10.63;;;4.47;;
60312;SDS011;46158;52.850;6.970;2022-11-20T07:06:07;14.95;;;5.28;;
60312;SDS011;46158;52.850;6.970;2022-11-20T07:08:33;12.55;;;4.20;;
60312;SDS011;46158;52.850;6.970;2022-11-20T07:10:59;14.18;;;4.88;;
60312;SDS011;46158;52.850;6.970;2022-11-20T07:13:26;12.63;;;4.55;;
60312;SDS011;46158;52.850;6.970;2022-11-20T07:15:53;13.25;;;4.43;;
60312;SDS011;46158;52.850;6.970;2022-11-20T07:18:19;12.88;;;4.18;;
60312;SDS011;46158;52.850;6.970;2022-11-20T07:20:44;12.00;;;4.40;;
60312;SDS011;46158;52.850;6.970;2022-11-20T07:23:10;13.52;;;4.40;;
60312;SDS011;46158;52.850;6.970;2022-11-20T07:25:35;12.52;;;4.35;;
60312;SDS011;46158;52.850;6.970;2022-11-20T07:28:01;9.52;;;3.92;;
60312;SDS011;46158;52.850;6.970;2022-11-20T07:30:27;9.85;;;3.85;;
60312;SDS011;46158;52.850;6.970;2022-11-20T07:32:53;10.20;;;4.00;;
60312;SDS011;46158;52.850;6.970;2022-11-20T07:35:20;16.42;;;6.10;;
60312;SDS011;46158;52.850;6.970;2022-11-20T07:37:46;12.40;;;4.45;;
60312;SDS011;46158;52.850;6.970;2022-11-20T07:40:13;15.38;;;4.45;;
60312;SDS011;46158;52.850;6.970;2022-11-20T07:42:46;11.88;;;4.35;;
60312;SDS011;46158;52.850;6.970;2022-11-20T07:45:13;12.50;;;4.30;;
60312;SDS011;46158;52.850;6.970;2022-11-20T07:47:38;10.32;;;4.05;;
60312;SDS011;46158;52.850;6.970;2022-11-20T07:50:04;12.10;;;4.47;;
60312;SDS011;46158;52.850;6.970;2022-11-20T07:52:30;14.13;;;5.30;;
60312;SDS011;46158;52.850;6.970;2022-11-20T07:54:56;16.88;;;4.82;;
60312;SDS011;46158;52.850;6.970;2022-11-20T07:57:21;12.73;;;4.78;;
60312;SDS011;46158;52.850;6.970;2022-11-20T07:59:47;12.23;;;4.55;;
60312;SDS011;46158;52.850;6.970;2022-11-20T08:02:12;13.32;;;4.53;;
60312;SDS011;46158;52.850;6.970;2022-11-20T08:04:38;12.82;;;4.50;;
60312;SDS011;46158;52.850;6.970;2022-11-20T08:07:03;12.73;;;4.38;;
60312;SDS011;46158;52.850;6.970;2022-11-20T08:09:29;11.82;;;4.32;;
60312;SDS011;46158;52.850;6.970;2022-11-20T08:11:55;21.40;;;4.40;;
60312;SDS011;46158;52.850;6.970;2022-11-20T08:14:39;12.05;;;4.45;;
60312;SDS011;46158;52.850;6.970;2022-11-20T08:17:04;11.95;;;4.28;;
60312;SDS011;46158;52.850;6.970;2022-11-20T08:19:30;13.00;;;4.25;;
60312;SDS011;46158;52.850;6.970;2022-11-20T08:21:55;11.15;;;3.90;;
60312;SDS011;46158;52.850;6.970;2022-11-20T08:24:21;11.77;;;4.22;;
60312;SDS011;46158;52.850;6.970;2022-11-20T08:26:47;16.70;;;5.53;;
60312;SDS011;46158;52.850;6.970;2022-11-20T08:29:12;13.48;;;4.65;;
60312;SDS011;46158;52.850;6.970;2022-11-20T08:31:38;15.48;;;4.57;;
60312;SDS011;46158;52.850;6.970;2022-11-20T08:34:03;14.40;;;4.38;;
60312;SDS011;46158;52.850;6.970;2022-11-20T08:36:32;15.32;;;4.53;;
60312;SDS011;46158;52.850;6.970;2022-11-20T08:38:59;10.82;;;4.10;;
60312;SDS011;46158;52.850;6.970;2022-11-20T08:41:24;15.95;;;4.50;;
60312;SDS011;46158;52.850;6.970;2022-11-20T08:43:54;11.43;;;4.20;;
60312;SDS011;46158;52.850;6.970;2022-11-20T08:46:20;12.73;;;4.70;;
60312;SDS011;46158;52.850;6.970;2022-11-20T08:48:46;14.02;;;4.57;;
60312;SDS011;46158;52.850;6.970;2022-11-20T08:51:11;13.80;;;4.20;;
60312;SDS011;46158;52.850;6.970;2022-11-20T08:53:38;14.45;;;5.03;;
60312;SDS011;46158;52.850;6.970;2022-11-20T08:56:04;11.45;;;4.18;;
60312;SDS011;46158;52.850;6.970;2022-11-20T08:58:30;11.20;;;4.10;;
60312;SDS011;46158;52.850;6.970;2022-11-20T09:00:56;12.65;;;4.10;;
60312;SDS011;46158;52.850;6.970;2022-11-20T09:03:21;13.50;;;4.38;;
60312;SDS011;46158;52.850;6.970;2022-11-20T09:05:47;10.85;;;4.10;;
60312;SDS011;46158;52.850;6.970;2022-11-20T09:08:13;10.68;;;3.92;;
60312;SDS011;46158;52.850;6.970;2022-11-20T09:10:39;16.92;;;4.63;;
60312;SDS011;46158;52.850;6.970;2022-11-20T09:13:05;11.23;;;4.10;;
60312;SDS011;46158;52.850;6.970;2022-11-20T09:15:31;12.13;;;4.10;;
60312;SDS011;46158;52.850;6.970;2022-11-20T09:17:58;12.43;;;4.30;;
60312;SDS011;46158;52.850;6.970;2022-11-20T09:20:29;12.90;;;4.15;;
60312;SDS011;46158;52.850;6.970;2022-11-20T09:22:56;11.05;;;4.18;;
60312;SDS011;46158;52.850;6.970;2022-11-20T09:25:22;13.70;;;4.40;;
60312;SDS011;46158;52.850;6.970;2022-11-20T09:27:54;11.32;;;4.30;;
60312;SDS011;46158;52.850;6.970;2022-11-20T09:30:20;13.70;;;4.40;;
60312;SDS011;46158;52.850;6.970;2022-11-20T09:32:45;11.70;;;4.40;;
60312;SDS011;46158;52.850;6.970;2022-11-20T09:35:11;13.52;;;4.85;;
60312;SDS011;46158;52.850;6.970;2022-11-20T09:37:37;12.85;;;4.30;;
60312;SDS011;46158;52.850;6.970;2022-11-20T09:40:02;11.40;;;4.10;;
60312;SDS011;46158;52.850;6.970;2022-11-20T09:45:15;13.10;;;4.32;;
60312;SDS011;46158;52.850;6.970;2022-11-20T09:50:57;10.98;;;3.97;;
60312;SDS011;46158;52.850;6.970;2022-11-20T09:58:40;11.02;;;4.05;;
60312;SDS011;46158;52.850;6.970;2022-11-20T10:01:12;9.43;;;3.85;;
60312;SDS011;46158;52.850;6.970;2022-11-20T10:03:56;13.45;;;3.90;;
60312;SDS011;46158;52.850;6.970;2022-11-20T10:11:48;11.80;;;4.30;;
60312;SDS011;46158;52.850;6.970;2022-11-20T10:25:49;11.07;;;3.90;;
60312;SDS011;46158;52.850;6.970;2022-11-20T10:30:59;10.13;;;3.78;;
60312;SDS011;46158;52.850;6.970;2022-11-20T10:33:29;10.40;;;3.70;;
60312;SDS011;46158;52.850;6.970;2022-11-20T10:38:58;10.75;;;4.25;;
60312;SDS011;46158;52.850;6.970;2022-11-20T10:41:30;11.35;;;4.32;;
60312;SDS011;46158;52.850;6.970;2022-11-20T10:44:01;13.80;;;4.47;;
60312;SDS011;46158;52.850;6.970;2022-11-20T10:49:14;10.60;;;4.00;;
60312;SDS011;46158;52.850;6.970;2022-11-20T10:54:26;14.82;;;4.40;;
60312;SDS011;46158;52.850;6.970;2022-11-20T10:57:07;11.38;;;4.10;;
60312;SDS011;46158;52.850;6.970;2022-11-20T10:59:50;12.30;;;4.10;;
60312;SDS011;46158;52.850;6.970;2022-11-20T11:02:39;12.25;;;4.03;;
60312;SDS011;46158;52.850;6.970;2022-11-20T11:07:56;13.40;;;3.72;;
60312;SDS011;46158;52.850;6.970;2022-11-20T11:12:52;11.63;;;4.00;;
60312;SDS011;46158;52.850;6.970;2022-11-20T11:15:25;11.57;;;3.85;;
60312;SDS011;46158;52.850;6.970;2022-11-20T11:17:54;11.82;;;4.20;;
60312;SDS011;46158;52.850;6.970;2022-11-20T11:20:20;13.27;;;4.03;;
60312;SDS011;46158;52.850;6.970;2022-11-20T11:22:48;13.18;;;4.20;;
60312;SDS011;46158;52.850;6.970;2022-11-20T11:25:28;11.50;;;3.90;;
60312;SDS011;46158;52.850;6.970;2022-11-20T11:27:59;12.27;;;3.95;;
60312;SDS011;46158;52.850;6.970;2022-11-20T11:30:27;10.35;;;3.90;;
60312;SDS011;46158;52.850;6.970;2022-11-20T11:35:59;12.52;;;3.90;;
60312;SDS011;46158;52.850;6.970;2022-11-20T11:38:29;12.35;;;3.92;;
60312;SDS011;46158;52.850;6.970;2022-11-20T11:41:02;9.75;;;3.83;;
60312;SDS011;46158;52.850;6.970;2022-11-20T11:43:30;9.48;;;3.75;;
60312;SDS011;46158;52.850;6.970;2022-11-20T11:49:08;9.85;;;3.78;;
60312;SDS011;46158;52.850;6.970;2022-11-20T11:51:40;9.82;;;3.75;;
60312;SDS011;46158;52.850;6.970;2022-11-20T11:54:25;11.10;;;3.72;;
60312;SDS011;46158;52.850;6.970;2022-11-20T11:57:00;9.18;;;3.90;;
60312;SDS011;46158;52.850;6.970;2022-11-20T12:02:04;11.40;;;3.97;;
60312;SDS011;46158;52.850;6.970;2022-11-20T12:04:57;12.77;;;4.50;;
60312;SDS011;46158;52.850;6.970;2022-11-20T12:07:41;11.50;;;4.03;;
60312;SDS011;46158;52.850;6.970;2022-11-20T12:10:34;10.18;;;3.97;;
60312;SDS011;46158;52.850;6.970;2022-11-20T12:13:02;10.75;;;3.83;;
60312;SDS011;46158;52.850;6.970;2022-11-20T12:15:37;10.52;;;3.78;;
60312;SDS011;46158;52.850;6.970;2022-11-20T12:18:18;9.35;;;3.83;;
60312;SDS011;46158;52.850;6.970;2022-11-20T12:20:53;9.95;;;4.10;;
60312;SDS011;46158;52.850;6.970;2022-11-20T12:26:08;10.98;;;3.97;;
60312;SDS011;46158;52.850;6.970;2022-11-20T12:31:52;9.35;;;3.67;;
60312;SDS011;46158;52.850;6.970;2022-11-20T12:39:34;10.50;;;3.80;;
60312;SDS011;46158;52.850;6.970;2022-11-20T12:45:24;9.88;;;3.28;;
60312;SDS011;46158;52.850;6.970;2022-11-20T12:48:20;10.45;;;3.53;;
60312;SDS011;46158;52.850;6.970;2022-11-20T13:07:18;9.80;;;3.80;;
60312;SDS011;46158;52.850;6.970;2022-11-20T13:09:47;10.18;;;3.50;;
60312;SDS011;46158;52.850;6.970;2022-11-20T13:12:20;11.93;;;3.72;;
60312;SDS011;46158;52.850;6.970;2022-11-20T13:15:39;10.98;;;3.97;;
60312;SDS011;46158;52.850;6.970;2022-11-20T13:18:16;10.05;;;3.50;;
60312;SDS011;46158;52.850;6.970;2022-11-20T13:20:44;11.90;;;3.75;;
60312;SDS011;46158;52.850;6.970;2022-11-20T13:23:22;11.68;;;3.75;;
60312;SDS011;46158;52.850;6.970;2022-11-20T13:25:49;10.73;;;3.70;;
60312;SDS011;46158;52.850;6.970;2022-11-20T13:30:52;15.35;;;3.70;;
60312;SDS011;46158;52.850;6.970;2022-11-20T13:35:59;10.80;;;3.70;;
60312;SDS011;46158;52.850;6.970;2022-11-20T13:38:26;9.30;;;3.28;;
60312;SDS011;46158;52.850;6.970;2022-11-20T13:40:54;8.13;;;3.55;;
60312;SDS011;46158;52.850;6.970;2022-11-20T13:43:44;11.00;;;3.92;;
60312;SDS011;46158;52.850;6.970;2022-11-20T13:46:12;7.43;;;3.40;;
60312;SDS011;46158;52.850;6.970;2022-11-20T13:48:41;10.85;;;3.38;;
60312;SDS011;46158;52.850;6.970;2022-11-20T14:02:02;12.38;;;4.57;;
60312;SDS011;46158;52.850;6.970;2022-11-20T14:04:33;12.00;;;4.05;;
60312;SDS011;46158;52.850;6.970;2022-11-20T14:07:01;11.48;;;3.90;;
60312;SDS011;46158;52.850;6.970;2022-11-20T14:09:31;11.68;;;4.10;;
60312;SDS011;46158;52.850;6.970;2022-11-20T14:11:58;11.00;;;4.00;;
60312;SDS011;46158;52.850;6.970;2022-11-20T14:14:28;9.55;;;3.78;;
60312;SDS011;46158;52.850;6.970;2022-11-20T14:17:05;14.10;;;4.30;;
60312;SDS011;46158;52.850;6.970;2022-11-20T14:19:32;13.75;;;4.03;;
60312;SDS011;46158;52.850;6.970;2022-11-20T14:24:35;11.82;;;4.00;;
60312;SDS011;46158;52.850;6.970;2022-11-20T14:27:01;10.93;;;4.00;;
60312;SDS011;46158;52.850;6.970;2022-11-20T14:29:28;10.23;;;3.70;;
60312;SDS011;46158;52.850;6.970;2022-11-20T14:32:00;14.65;;;4.03;;
60312;SDS011;46158;52.850;6.970;2022-11-20T14:34:28;11.88;;;4.13;;
60312;SDS011;46158;52.850;6.970;2022-11-20T14:36:57;8.85;;;3.80;;
60312;SDS011;46158;52.850;6.970;2022-11-20T14:39:32;11.30;;;3.80;;
60312;SDS011;46158;52.850;6.970;2022-11-20T14:41:59;10.55;;;3.60;;
60312;SDS011;46158;52.850;6.970;2022-11-20T14:44:30;12.45;;;3.80;;
60312;SDS011;46158;52.850;6.970;2022-11-20T14:46:59;11.43;;;4.22;;
60312;SDS011;46158;52.850;6.970;2022-11-20T14:49:27;10.20;;;3.70;;
60312;SDS011;46158;52.850;6.970;2022-11-20T14:52:02;12.82;;;4.30;;
60312;SDS011;46158;52.850;6.970;2022-11-20T14:54:47;15.13;;;5.18;;
60312;SDS011;46158;52.850;6.970;2022-11-20T14:59:45;13.57;;;4.65;;
60312;SDS011;46158;52.850;6.970;2022-11-20T15:02:11;14.10;;;4.60;;
60312;SDS011;46158;52.850;6.970;2022-11-20T15:04:50;14.30;;;4.38;;
60312;SDS011;46158;52.850;6.970;2022-11-20T15:07:34;12.15;;;4.63;;
60312;SDS011;46158;52.850;6.970;2022-11-20T15:12:55;10.80;;;4.15;;
60312;SDS011;46158;52.850;6.970;2022-11-20T15:18:03;14.45;;;4.57;;
60312;SDS011;46158;52.850;6.970;2022-11-20T15:20:30;13.68;;;4.22;;
60312;SDS011;46158;52.850;6.970;2022-11-20T15:22:57;13.95;;;4.35;;
60312;SDS011;46158;52.850;6.970;2022-11-20T15:25:23;11.75;;;4.40;;
60312;SDS011;46158;52.850;6.970;2022-11-20T15:27:51;12.57;;;4.20;;
60312;SDS011;46158;52.850;6.970;2022-11-20T15:30:22;14.10;;;4.40;;
60312;SDS011;46158;52.850;6.970;2022-11-20T15:32:48;11.43;;;4.05;;
60312;SDS011;46158;52.850;6.970;2022-11-20T15:35:14;11.27;;;4.10;;
60312;SDS011;46158;52.850;6.970;2022-11-20T15:37:40;10.68;;;4.22;;
60312;SDS011;46158;52.850;6.970;2022-11-20T15:40:07;13.38;;;4.47;;
60312;SDS011;46158;52.850;6.970;2022-11-20T15:42:33;11.82;;;4.28;;
60312;SDS011;46158;52.850;6.970;2022-11-20T15:45:00;10.02;;;4.18;;
60312;SDS011;46158;52.850;6.970;2022-11-20T15:47:29;15.20;;;4.40;;
60312;SDS011;46158;52.850;6.970;2022-11-20T15:49:57;11.13;;;4.15;;
60312;SDS011;46158;52.850;6.970;2022-11-20T15:52:23;11.20;;;4.22;;
60312;SDS011;46158;52.850;6.970;2022-11-20T15:54:49;11.63;;;4.05;;
60312;SDS011;46158;52.850;6.970;2022-11-20T15:57:14;17.20;;;5.20;;
60312;SDS011;46158;52.850;6.970;2022-11-20T15:59:40;15.18;;;5.15;;
60312;SDS011;46158;52.850;6.970;2022-11-20T16:02:10;18.65;;;6.07;;
60312;SDS011;46158;52.850;6.970;2022-11-20T16:04:36;23.38;;;8.98;;
60312;SDS011;46158;52.850;6.970;2022-11-20T16:07:03;24.67;;;9.48;;
60312;SDS011;46158;52.850;6.970;2022-11-20T16:09:28;26.80;;;9.80;;
60312;SDS011;46158;52.850;6.970;2022-11-20T16:11:54;26.25;;;10.43;;
60312;SDS011;46158;52.850;6.970;2022-11-20T16:14:20;25.52;;;10.65;;
60312;SDS011;46158;52.850;6.970;2022-11-20T16:17:04;25.63;;;11.43;;
60312;SDS011;46158;52.850;6.970;2022-11-20T16:19:30;25.50;;;11.50;;
60312;SDS011;46158;52.850;6.970;2022-11-20T16:21:57;29.15;;;12.00;;
60312;SDS011;46158;52.850;6.970;2022-11-20T16:24:22;27.67;;;12.40;;
60312;SDS011;46158;52.850;6.970;2022-11-20T16:26:48;26.35;;;11.80;;
60312;SDS011;46158;52.850;6.970;2022-11-20T16:29:14;27.65;;;11.68;;
60312;SDS011;46158;52.850;6.970;2022-11-20T16:31:39;24.48;;;10.85;;
60312;SDS011;46158;52.850;6.970;2022-11-20T16:34:06;25.40;;;10.82;;
60312;SDS011;46158;52.850;6.970;2022-11-20T16:36:32;26.42;;;11.20;;
60312;SDS011;46158;52.850;6.970;2022-11-20T16:38:59;25.42;;;11.80;;
60312;SDS011;46158;52.850;6.970;2022-11-20T16:41:27;28.17;;;11.55;;
60312;SDS011;46158;52.850;6.970;2022-11-20T16:43:56;22.98;;;10.32;;